Observation data for Silverton on 12/08/2019      Previous  Date       Current Mesonet Observations  Soil Data  Daily Summary Page  Observations in Plain Language
KSVS 080600Z 22015KT 09/02 A2996 RMK A01 T00860018  RH  063%=      5-min Rain = 0
KSVS 080605Z 22014KT 09/02 A2996 RMK A01 T00890018  RH  062%=      5-min Rain = 0
KSVS 080610Z 22015KT 09/02 A2996 RMK A01 T00890018  RH  062%=      5-min Rain = 0
KSVS 080615Z 22015G20KT 09/02 A2996 RMK A01 T00920019  RH  061%=      5-min Rain = 0
KSVS 080620Z 22016G23KT 10/02 A2996 RMK A01 T00950019  RH  060%=      5-min Rain = 0
KSVS 080625Z 22019KT 10/02 A2995 RMK A01 T00990019  RH  058%=      5-min Rain = 0
KSVS 080630Z 22018G24KT 10/02 A2994 RMK A01 T01010019  RH  058%=      5-min Rain = 0
KSVS 080635Z 22018G24KT 10/02 A2994 RMK A01 T01010019  RH  057%=      5-min Rain = 0
KSVS 080640Z 22019G25KT 10/02 A2993 RMK A01 T01020019  RH  057%=      5-min Rain = 0
KSVS 080645Z 22020G25KT 10/02 A2993 RMK A01 T01040019  RH  057%=      5-min Rain = 0
KSVS 080650Z 22019G26KT 10/02 A2993 RMK A01 T01030019  RH  057%=      5-min Rain = 0
KSVS 080655Z 22021G27KT 10/02 A2993 RMK A01 T01040019  RH  057%=      5-min Rain = 0
KSVS 080700Z 22020G27KT 10/02 A2992 RMK A01 T01030019  RH  057%=      5-min Rain = 0
KSVS 080705Z 22020G26KT 10/02 A2992 RMK A01 T01020019  RH  057%=      5-min Rain = 0
KSVS 080710Z 23019G27KT 10/02 A2992 RMK A01 T01000019  RH  058%=      5-min Rain = 0
KSVS 080715Z 22019KT 10/02 A2992 RMK A01 T00980019  RH  059%=      5-min Rain = 0
KSVS 080720Z 22017G22KT 10/02 A2991 RMK A01 T00950019  RH  060%=      5-min Rain = 0
KSVS 080725Z 22017G23KT 10/02 A2991 RMK A01 T00950019  RH  060%=      5-min Rain = 0
KSVS 080730Z 22018G23KT 09/02 A2991 RMK A01 T00940019  RH  060%=      5-min Rain = 0
KSVS 080735Z 22017G22KT 09/02 A2991 RMK A01 T00920019  RH  061%=      5-min Rain = 0
KSVS 080740Z 22017G23KT 09/02 A2991 RMK A01 T00920019  RH  061%=      5-min Rain = 0
KSVS 080745Z 22017G23KT 09/02 A2991 RMK A01 T00890018  RH  062%=      5-min Rain = 0
KSVS 080750Z 22017G22KT 09/02 A2991 RMK A01 T00870018  RH  063%=      5-min Rain = 0
KSVS 080755Z 22017G22KT 09/02 A2991 RMK A01 T00860019  RH  063%=      5-min Rain = 0
KSVS 080800Z 22017G22KT 09/02 A299 RMK A01 T00860019  RH  064%=      5-min Rain = 0
KSVS 080805Z 22016G21KT 08/02 A2991 RMK A01 T00840018  RH  064%=      5-min Rain = 0
KSVS 080810Z 22017G23KT 08/02 A2991 RMK A01 T00830019  RH  065%=      5-min Rain = 0
KSVS 080815Z 23017G23KT 08/02 A2991 RMK A01 T00830019  RH  065%=      5-min Rain = 0
KSVS 080820Z 22017G22KT 08/02 A2991 RMK A01 T00820019  RH  065%=      5-min Rain = 0
KSVS 080825Z 23016KT 08/02 A2991 RMK A01 T00790019  RH  066%=      5-min Rain = 0
KSVS 080830Z 23014G19KT 08/02 A2991 RMK A01 T00790019  RH  067%=      5-min Rain = 0
KSVS 080835Z 23012KT 08/02 A2992 RMK A01 T00770018  RH  067%=      5-min Rain = 0
KSVS 080840Z 23013KT 08/02 A2992 RMK A01 T00750018  RH  068%=      5-min Rain = 0
KSVS 080845Z 23010KT 07/02 A2992 RMK A01 T00720017  RH  069%=      5-min Rain = 0
KSVS 080850Z 23010KT 07/02 A2991 RMK A01 T00660015  RH  071%=      5-min Rain = 0
KSVS 080855Z 23010KT 06/02 A2991 RMK A01 T00620015  RH  073%=      5-min Rain = 0
KSVS 080900Z 24010KT 06/02 A2991 RMK A01 T00590015  RH  074%=      5-min Rain = 0
KSVS 080905Z 24011KT 06/02 A299 RMK A01 T00610016  RH  074%=      5-min Rain = 0
KSVS 080910Z 24011KT 06/02 A299 RMK A01 T00640017  RH  073%=      5-min Rain = 0
KSVS 080915Z 24010KT 06/02 A299 RMK A01 T00620016  RH  074%=      5-min Rain = 0
KSVS 080920Z 24009KT 06/02 A299 RMK A01 T00570015  RH  075%=      5-min Rain = 0
KSVS 080925Z 25009KT 06/02 A299 RMK A01 T00560015  RH  076%=      5-min Rain = 0
KSVS 080930Z 25009KT 06/02 A299 RMK A01 T00570016  RH  076%=      5-min Rain = 0
KSVS 080935Z 25010KT 06/02 A299 RMK A01 T00600018  RH  076%=      5-min Rain = 0
KSVS 080940Z 25010KT 06/02 A299 RMK A01 T00620019  RH  075%=      5-min Rain = 0
KSVS 080945Z 25010KT 06/02 A299 RMK A01 T00640020  RH  075%=      5-min Rain = 0
KSVS 080950Z 26010KT 07/02 A299 RMK A01 T00660021  RH  074%=      5-min Rain = 0
KSVS 080955Z 25010KT 07/02 A299 RMK A01 T00680022  RH  074%=      5-min Rain = 0
KSVS 081000Z 26009KT 07/02 A2989 RMK A01 T00690023  RH  073%=      5-min Rain = 0
KSVS 081005Z 26008KT 07/02 A2988 RMK A01 T00700024  RH  073%=      5-min Rain = 0
KSVS 081010Z 25009KT 07/03 A2988 RMK A01 T00740026  RH  073%=      5-min Rain = 0
KSVS 081015Z 25011KT 08/03 A2988 RMK A01 T00810029  RH  071%=      5-min Rain = 0
KSVS 081020Z 25013KT 09/03 A2989 RMK A01 T00910031  RH  067%=      5-min Rain = 0
KSVS 081025Z 26013KT 10/03 A2988 RMK A01 T00970031  RH  064%=      5-min Rain = 0
KSVS 081030Z 26012KT 10/03 A2988 RMK A01 T01000031  RH  063%=      5-min Rain = 0
KSVS 081035Z 26011KT 10/03 A2987 RMK A01 T00990031  RH  063%=      5-min Rain = 0
KSVS 081040Z 26011KT 10/03 A2987 RMK A01 T00990031  RH  063%=      5-min Rain = 0
KSVS 081045Z 27009KT 10/03 A2987 RMK A01 T00980031  RH  064%=      5-min Rain = 0
KSVS 081050Z 26009KT 10/03 A2987 RMK A01 T00990031  RH  064%=      5-min Rain = 0
KSVS 081055Z 27008KT 10/03 A2986 RMK A01 T00990030  RH  064%=      5-min Rain = 0
KSVS 081100Z 28008KT 10/03 A2986 RMK A01 T00980030  RH  064%=      5-min Rain = 0
KSVS 081105Z 29007KT 09/03 A2986 RMK A01 T00930030  RH  066%=      5-min Rain = 0
KSVS 081110Z 29009KT 09/03 A2986 RMK A01 T00910031  RH  067%=      5-min Rain = 0
KSVS 081115Z 27010KT 10/03 A2986 RMK A01 T00980030  RH  064%=      5-min Rain = 0
KSVS 081120Z 27008KT 10/03 A2986 RMK A01 T00980030  RH  064%=      5-min Rain = 0
KSVS 081125Z 27009KT 10/03 A2986 RMK A01 T00960029  RH  064%=      5-min Rain = 0
KSVS 081130Z 26010KT 10/03 A2986 RMK A01 T00960029  RH  064%=      5-min Rain = 0
KSVS 081135Z 27010KT 10/03 A2986 RMK A01 T00980029  RH  063%=      5-min Rain = 0
KSVS 081140Z 27009KT 10/03 A2986 RMK A01 T00980028  RH  063%=      5-min Rain = 0
KSVS 081145Z 27009KT 10/03 A2986 RMK A01 T00970028  RH  063%=      5-min Rain = 0
KSVS 081150Z 29008KT 09/03 A2987 RMK A01 T00920027  RH  065%=      5-min Rain = 0
KSVS 081155Z 27009KT 09/03 A2987 RMK A01 T00910027  RH  065%=      5-min Rain = 0
KSVS 081200Z 27011KT 09/03 A2987 RMK A01 T00940027  RH  064%=      5-min Rain = 0
KSVS 081205Z 26011KT 10/03 A2987 RMK A01 T00980027  RH  063%=      5-min Rain = 0
KSVS 081210Z 27012KT 10/03 A2987 RMK A01 T00990027  RH  062%=      5-min Rain = 0
KSVS 081215Z 28011KT 10/03 A2988 RMK A01 T00970027  RH  063%=      5-min Rain = 0
KSVS 081220Z 27011KT 10/03 A2988 RMK A01 T00960027  RH  063%=      5-min Rain = 0
KSVS 081225Z 27012G17KT 10/03 A2988 RMK A01 T01010027  RH  061%=      5-min Rain = 0
KSVS 081230Z 26012KT 11/03 A2987 RMK A01 T01060027  RH  059%=      5-min Rain = 0
KSVS 081235Z 26012KT 11/03 A2987 RMK A01 T01070028  RH  059%=      5-min Rain = 0
KSVS 081240Z 27011KT 11/03 A2987 RMK A01 T01060028  RH  059%=      5-min Rain = 0
KSVS 081245Z 26011KT 10/03 A2987 RMK A01 T01030028  RH  061%=      5-min Rain = 0
KSVS 081250Z 24010KT 10/03 A2987 RMK A01 T01010028  RH  062%=      5-min Rain = 0
KSVS 081255Z 25010KT 10/03 A2987 RMK A01 T00990028  RH  062%=      5-min Rain = 0
KSVS 081300Z 25011KT 10/03 A2987 RMK A01 T01000028  RH  062%=      5-min Rain = 0
KSVS 081305Z 25011KT 10/03 A2987 RMK A01 T01010029  RH  062%=      5-min Rain = 0
KSVS 081310Z 25012KT 10/03 A2987 RMK A01 T01040029  RH  061%=      5-min Rain = 0
KSVS 081315Z 25012KT 11/03 A2986 RMK A01 T01060029  RH  060%=      5-min Rain = 0
KSVS 081320Z 25012KT 11/03 A2986 RMK A01 T01070029  RH  060%=      5-min Rain = 0
KSVS 081325Z 25012KT 11/03 A2986 RMK A01 T01080029  RH  059%=      5-min Rain = 0
KSVS 081330Z 25013KT 11/03 A2986 RMK A01 T01110029  RH  058%=      5-min Rain = 0
KSVS 081335Z 24012KT 11/03 A2986 RMK A01 T01140029  RH  057%=      5-min Rain = 0
KSVS 081340Z 24013KT 12/03 A2986 RMK A01 T01160029  RH  056%=      5-min Rain = 0
KSVS 081345Z 24012KT 12/03 A2986 RMK A01 T01170029  RH  056%=      5-min Rain = 0
KSVS 081350Z 24012KT 12/03 A2986 RMK A01 T01180029  RH  055%=      5-min Rain = 0
KSVS 081355Z 25012KT 12/03 A2986 RMK A01 T01190028  RH  055%=      5-min Rain = 0
KSVS 081400Z 25012KT 12/03 A2986 RMK A01 T01190028  RH  055%=      5-min Rain = 0
KSVS 081405Z 25011KT 12/03 A2986 RMK A01 T01190029  RH  055%=      5-min Rain = 0
KSVS 081410Z 25012KT 12/03 A2985 RMK A01 T01200029  RH  054%=      5-min Rain = 0
KSVS 081415Z 25012KT 12/03 A2985 RMK A01 T01210029  RH  054%=      5-min Rain = 0
KSVS 081420Z 25013KT 12/03 A2985 RMK A01 T01210029  RH  054%=      5-min Rain = 0
KSVS 081425Z 25013KT 12/03 A2985 RMK A01 T01210029  RH  054%=      5-min Rain = 0
KSVS 081430Z 25013KT 12/03 A2985 RMK A01 T01210029  RH  054%=      5-min Rain = 0
KSVS 081435Z 25013KT 12/03 A2985 RMK A01 T01230029  RH  054%=      5-min Rain = 0
KSVS 081440Z 25014KT 13/03 A2985 RMK A01 T01250029  RH  053%=      5-min Rain = 0
KSVS 081445Z 26015G21KT 13/03 A2985 RMK A01 T01270030  RH  052%=      5-min Rain = 0
KSVS 081450Z 26016KT 13/03 A2984 RMK A01 T01310030  RH  051%=      5-min Rain = 0
KSVS 081455Z 26016KT 13/03 A2985 RMK A01 T01340031  RH  050%=      5-min Rain = 0
KSVS 081500Z 26016G21KT 14/03 A2985 RMK A01 T01350031  RH  050%=      5-min Rain = 0
KSVS 081505Z 26015KT 14/03 A2985 RMK A01 T01360032  RH  050%=      5-min Rain = 0
KSVS 081510Z 26015KT 14/03 A2985 RMK A01 T01390033  RH  050%=      5-min Rain = 0
KSVS 081515Z 26016G21KT 14/03 A2985 RMK A01 T01410033  RH  049%=      5-min Rain = 0
KSVS 081520Z 26016KT 14/03 A2985 RMK A01 T01430034  RH  049%=      5-min Rain = 0
KSVS 081525Z 26018G23KT 15/03 A2985 RMK A01 T01450034  RH  048%=      5-min Rain = 0
KSVS 081530Z 26017KT 14/03 A2985 RMK A01 T01440034  RH  048%=      5-min Rain = 0
KSVS 081535Z 26016G21KT 14/03 A2986 RMK A01 T01420034  RH  049%=      5-min Rain = 0
KSVS 081540Z 26015KT 14/03 A2985 RMK A01 T01390034  RH  050%=      5-min Rain = 0
KSVS 081545Z 26014KT 14/03 A2985 RMK A01 T01370034  RH  051%=      5-min Rain = 0
KSVS 081550Z 26013KT 14/03 A2985 RMK A01 T01360034  RH  051%=      5-min Rain = 0
KSVS 081555Z 25012KT 14/03 A2985 RMK A01 T01360034  RH  051%=      5-min Rain = 0
KSVS 081600Z 25012KT 14/04 A2985 RMK A01 T01380036  RH  051%=      5-min Rain = 0
KSVS 081605Z 25011KT 14/04 A2985 RMK A01 T01410037  RH  051%=      5-min Rain = 0
KSVS 081610Z 26012KT 15/04 A2985 RMK A01 T01460039  RH  050%=      5-min Rain = 0
KSVS 081615Z 26013KT 15/04 A2985 RMK A01 T01490040  RH  049%=      5-min Rain = 0
KSVS 081620Z 27014KT 15/04 A2985 RMK A01 T01500040  RH  048%=      5-min Rain = 0
KSVS 081625Z 27017G26KT 16/04 A2985 RMK A01 T01580041  RH  046%=      5-min Rain = 0
KSVS 081630Z 27019G25KT 16/04 A2984 RMK A01 T01570040  RH  046%=      5-min Rain = 0
KSVS 081635Z 27017G23KT 16/04 A2984 RMK A01 T01640044  RH  046%=      5-min Rain = 0
KSVS 081640Z 27020G25KT 17/04 A2984 RMK A01 T01690043  RH  044%=      5-min Rain = 0
KSVS 081645Z 27020G26KT 17/04 A2984 RMK A01 T01670042  RH  044%=      5-min Rain = 0
KSVS 081650Z 27018G23KT 17/04 A2984 RMK A01 T01670043  RH  045%=      5-min Rain = 0
KSVS 081655Z 27018G26KT 17/04 A2984 RMK A01 T01700044  RH  044%=      5-min Rain = 0
KSVS 081700Z 27021G27KT 17/04 A2984 RMK A01 T01720042  RH  043%=      5-min Rain = 0
KSVS 081705Z 27019G24KT 17/04 A2983 RMK A01 T01710042  RH  043%=      5-min Rain = 0
KSVS 081710Z 27019G25KT 17/04 A2983 RMK A01 T01710042  RH  043%=      5-min Rain = 0
KSVS 081715Z 26022G27KT 17/04 A2983 RMK A01 T01720040  RH  043%=      5-min Rain = 0
KSVS 081720Z 26021G26KT 17/04 A2983 RMK A01 T01730041  RH  042%=      5-min Rain = 0
KSVS 081725Z 26022G27KT 17/04 A2983 RMK A01 T01740041  RH  042%=      5-min Rain = 0
KSVS 081730Z 26021G29KT 18/04 A2983 RMK A01 T01760042  RH  042%=      5-min Rain = 0
KSVS 081735Z 26023G29KT 18/04 A2983 RMK A01 T01750041  RH  042%=      5-min Rain = 0
KSVS 081740Z 26022G28KT 18/04 A2982 RMK A01 T01780042  RH  041%=      5-min Rain = 0
KSVS 081745Z 26024G31KT 18/04 A2982 RMK A01 T01790042  RH  041%=      5-min Rain = 0
KSVS 081750Z 26023G31KT 18/04 A2982 RMK A01 T01820043  RH  041%=      5-min Rain = 0
KSVS 081755Z 26021G28KT 18/04 A2981 RMK A01 T01840044  RH  040%=      5-min Rain = 0
KSVS 081800Z 26025G30KT 18/04 A2981 RMK A01 T01810042  RH  040%=      5-min Rain = 0
KSVS 081805Z 26022G29KT 18/04 A2981 RMK A01 T01800042  RH  041%=      5-min Rain = 0
KSVS 081810Z 26022G27KT 18/04 A298 RMK A01 T01840043  RH  040%=      5-min Rain = 0
KSVS 081815Z 25023G29KT 19/04 A298 RMK A01 T01860043  RH  039%=      5-min Rain = 0
KSVS 081820Z 26023G31KT 19/04 A2979 RMK A01 T01870042  RH  039%=      5-min Rain = 0
KSVS 081825Z 26022G27KT 19/04 A2979 RMK A01 T01890042  RH  039%=      5-min Rain = 0
KSVS 081830Z 26023G30KT 19/04 A2978 RMK A01 T01930042  RH  038%=      5-min Rain = 0
KSVS 081835Z 26023G29KT 20/04 A2978 RMK A01 T01960042  RH  037%=      5-min Rain = 0
KSVS 081840Z 26026G34KT 20/04 A2978 RMK A01 T01980040  RH  036%=      5-min Rain = 0
KSVS 081845Z 26025G32KT 20/04 A2978 RMK A01 T01990039  RH  035%=      5-min Rain = 0
KSVS 081850Z 26022G29KT 20/04 A2977 RMK A01 T02030042  RH  035%=      5-min Rain = 0
KSVS 081855Z 26022G32KT 21/04 A2977 RMK A01 T02050042  RH  035%=      5-min Rain = 0
KSVS 081900Z 26024G30KT 21/04 A2976 RMK A01 T02070039  RH  034%=      5-min Rain = 0
KSVS 081905Z 26026G32KT 21/04 A2976 RMK A01 T02080037  RH  033%=      5-min Rain = 0
KSVS 081910Z 26028G39KT 21/04 A2976 RMK A01 T02070035  RH  033%=      5-min Rain = 0
KSVS 081915Z 26028G35KT 20/03 A2976 RMK A01 T02030031  RH  033%=      5-min Rain = 0
KSVS 081920Z 27026G32KT 20/03 A2976 RMK A01 T02030034  RH  033%=      5-min Rain = 0
KSVS 081925Z 26025G34KT 21/04 A2976 RMK A01 T02090036  RH  033%=      5-min Rain = 0
KSVS 081930Z 26029G36KT 21/03 A2975 RMK A01 T02070033  RH  032%=      5-min Rain = 0
KSVS 081935Z 26028G35KT 20/03 A2975 RMK A01 T02040033  RH  033%=      5-min Rain = 0
KSVS 081940Z 26029G38KT 21/03 A2975 RMK A01 T02050033  RH  033%=      5-min Rain = 0
KSVS 081945Z 26029G36KT 21/03 A2975 RMK A01 T02050034  RH  033%=      5-min Rain = 0
KSVS 081950Z 26026G36KT 21/03 A2975 RMK A01 T02060034  RH  033%=      5-min Rain = 0
KSVS 081955Z 25029G38KT 21/03 A2974 RMK A01 T02070032  RH  032%=      5-min Rain = 0
KSVS 082000Z 26028G35KT 21/03 A2974 RMK A01 T02080032  RH  032%=      5-min Rain = 0
KSVS 082005Z 26026G34KT 21/03 A2974 RMK A01 T02080032  RH  032%=      5-min Rain = 0
KSVS 082010Z 25027G35KT 21/03 A2974 RMK A01 T02070031  RH  032%=      5-min Rain = 0
KSVS 082015Z 25025G35KT 21/03 A2974 RMK A01 T02060033  RH  032%=      5-min Rain = 0
KSVS 082020Z 25026G35KT 21/03 A2973 RMK A01 T02080034  RH  032%=      5-min Rain = 0
KSVS 082025Z 26028G35KT 21/03 A2973 RMK A01 T02080033  RH  032%=      5-min Rain = 0
KSVS 082030Z 26026G32KT 21/03 A2973 RMK A01 T02070034  RH  033%=      5-min Rain = 0
KSVS 082035Z 26026G35KT 21/03 A2973 RMK A01 T02070034  RH  033%=      5-min Rain = 0
KSVS 082040Z 26024G31KT 21/04 A2973 RMK A01 T02090036  RH  033%=      5-min Rain = 0
KSVS 082045Z 26027G33KT 21/04 A2973 RMK A01 T02140035  RH  031%=      5-min Rain = 0
KSVS 082050Z 26027G35KT 21/03 A2973 RMK A01 T02130033  RH  031%=      5-min Rain = 0
KSVS 082055Z 26026G34KT 21/03 A2972 RMK A01 T02110034  RH  032%=      5-min Rain = 0
KSVS 082100Z 26027G35KT 21/03 A2973 RMK A01 T02090034  RH  032%=      5-min Rain = 0
KSVS 082105Z 26026G37KT 21/04 A2973 RMK A01 T02100036  RH  032%=      5-min Rain = 0
KSVS 082110Z 26023G29KT 21/04 A2973 RMK A01 T02090037  RH  033%=      5-min Rain = 0
KSVS 082115Z 26029G37KT 21/04 A2972 RMK A01 T02070037  RH  033%=      5-min Rain = 0
KSVS 082120Z 26027G38KT 21/04 A2972 RMK A01 T02080038  RH  033%=      5-min Rain = 0
KSVS 082125Z 26030G38KT 21/04 A2972 RMK A01 T02080038  RH  033%=      5-min Rain = 0
KSVS 082130Z 26030G39KT 21/04 A2972 RMK A01 T02070037  RH  033%=      5-min Rain = 0
KSVS 082135Z 26029G36KT 21/04 A2972 RMK A01 T02050037  RH  034%=      5-min Rain = 0
KSVS 082140Z 26027G34KT 21/04 A2972 RMK A01 T02050038  RH  034%=      5-min Rain = 0
KSVS 082145Z 26025G33KT 21/04 A2972 RMK A01 T02050039  RH  034%=      5-min Rain = 0
KSVS 082150Z 26026G35KT 20/04 A2972 RMK A01 T02040038  RH  034%=      5-min Rain = 0
KSVS 082155Z 25027G35KT 20/04 A2972 RMK A01 T02040039  RH  034%=      5-min Rain = 0
KSVS 082200Z 26030G37KT 20/04 A2971 RMK A01 T02030037  RH  034%=      5-min Rain = 0
KSVS 082205Z 25030G40KT 20/04 A2971 RMK A01 T02010037  RH  035%=      5-min Rain = 0
KSVS 082210Z 26028G35KT 20/04 A2971 RMK A01 T02000037  RH  035%=      5-min Rain = 0
KSVS 082215Z 25029G37KT 20/04 A2971 RMK A01 T01990039  RH  035%=      5-min Rain = 0
KSVS 082220Z 25026G33KT 20/04 A2971 RMK A01 T01980040  RH  036%=      5-min Rain = 0
KSVS 082225Z 26025G34KT 20/04 A2971 RMK A01 T01980040  RH  036%=      5-min Rain = 0
KSVS 082230Z 26027G35KT 20/04 A2971 RMK A01 T01970040  RH  036%=      5-min Rain = 0
KSVS 082235Z 26026G34KT 20/04 A2971 RMK A01 T01970039  RH  036%=      5-min Rain = 0
KSVS 082240Z 26026G37KT 20/04 A2971 RMK A01 T01970038  RH  036%=      5-min Rain = 0
KSVS 082245Z 25028G36KT 20/04 A2971 RMK A01 T01980036  RH  035%=      5-min Rain = 0
KSVS 082250Z 26026G32KT 20/04 A2971 RMK A01 T01960037  RH  036%=      5-min Rain = 0
KSVS 082255Z 26025G32KT 20/04 A2972 RMK A01 T01950037  RH  036%=      5-min Rain = 0
KSVS 082300Z 25023G30KT 19/04 A2972 RMK A01 T01930038  RH  037%=      5-min Rain = 0
KSVS 082305Z 25022G29KT 19/04 A2972 RMK A01 T01910039  RH  037%=      5-min Rain = 0
KSVS 082310Z 25023G29KT 19/04 A2972 RMK A01 T01910040  RH  037%=      5-min Rain = 0
KSVS 082315Z 25022G27KT 19/04 A2972 RMK A01 T01890040  RH  038%=      5-min Rain = 0
KSVS 082320Z 25024G33KT 19/04 A2972 RMK A01 T01880040  RH  038%=      5-min Rain = 0
KSVS 082325Z 25022G30KT 19/04 A2972 RMK A01 T01870040  RH  038%=      5-min Rain = 0
KSVS 082330Z 25023G32KT 19/04 A2972 RMK A01 T01850039  RH  039%=      5-min Rain = 0
KSVS 082335Z 25024G32KT 19/04 A2972 RMK A01 T01850039  RH  039%=      5-min Rain = 0
KSVS 082340Z 25023G29KT 18/04 A2972 RMK A01 T01830038  RH  039%=      5-min Rain = 0
KSVS 082345Z 25023G32KT 18/04 A2972 RMK A01 T01830038  RH  039%=      5-min Rain = 0
KSVS 082350Z 25023G30KT 18/04 A2972 RMK A01 T01820037  RH  039%=      5-min Rain = 0
KSVS 082355Z 25025G31KT 18/04 A2972 RMK A01 T01820036  RH  039%=      5-min Rain = 0
KSVS 090000Z 25024G31KT 18/04 A2972 RMK A01 T01810035  RH  039%=      5-min Rain = 0
KSVS 090005Z 25023G30KT 18/04 A2973 RMK A01 T01800035  RH  039%=      5-min Rain = 0
KSVS 090010Z 26023G31KT 18/03 A2973 RMK A01 T01800034  RH  038%=      5-min Rain = 0
KSVS 090015Z 25023G29KT 18/03 A2973 RMK A01 T01790033  RH  038%=      5-min Rain = 0
KSVS 090020Z 25022G29KT 18/03 A2973 RMK A01 T01790032  RH  038%=      5-min Rain = 0
KSVS 090025Z 25021G29KT 18/03 A2974 RMK A01 T01770032  RH  039%=      5-min Rain = 0
KSVS 090030Z 26020G27KT 18/03 A2974 RMK A01 T01750031  RH  039%=      5-min Rain = 0
KSVS 090035Z 25018G24KT 17/03 A2974 RMK A01 T01720032  RH  040%=      5-min Rain = 0
KSVS 090040Z 25021G29KT 17/03 A2974 RMK A01 T01710032  RH  040%=      5-min Rain = 0
KSVS 090045Z 25023G29KT 17/03 A2974 RMK A01 T01720033  RH  040%=      5-min Rain = 0
KSVS 090050Z 25021G28KT 17/03 A2974 RMK A01 T01700033  RH  041%=      5-min Rain = 0
KSVS 090055Z 25021G27KT 17/03 A2974 RMK A01 T01670033  RH  041%=      5-min Rain = 0
KSVS 090100Z 25020G25KT 17/03 A2975 RMK A01 T01660033  RH  042%=      5-min Rain = 0
KSVS 090105Z 25019G24KT 16/03 A2974 RMK A01 T01630033  RH  043%=      5-min Rain = 0
KSVS 090110Z 25019G24KT 16/03 A2974 RMK A01 T01620033  RH  043%=      5-min Rain = 0
KSVS 090115Z 25017G22KT 16/03 A2975 RMK A01 T01590034  RH  044%=      5-min Rain = 0
KSVS 090120Z 25018G23KT 16/03 A2975 RMK A01 T01580034  RH  044%=      5-min Rain = 0
KSVS 090125Z 25020G26KT 16/03 A2975 RMK A01 T01590034  RH  044%=      5-min Rain = 0
KSVS 090130Z 25021G28KT 16/03 A2975 RMK A01 T01590034  RH  044%=      5-min Rain = 0
KSVS 090135Z 25021G29KT 16/03 A2975 RMK A01 T01590034  RH  044%=      5-min Rain = 0
KSVS 090140Z 25022G29KT 16/04 A2974 RMK A01 T01590035  RH  044%=      5-min Rain = 0
KSVS 090145Z 25020G25KT 16/04 A2974 RMK A01 T01570035  RH  045%=      5-min Rain = 0
KSVS 090150Z 25021G32KT 16/04 A2975 RMK A01 T01560035  RH  045%=      5-min Rain = 0
KSVS 090155Z 25020G25KT 15/04 A2975 RMK A01 T01540035  RH  046%=      5-min Rain = 0
KSVS 090200Z 25017G22KT 15/04 A2975 RMK A01 T01500035  RH  047%=      5-min Rain = 0
KSVS 090205Z 25019G25KT 15/04 A2974 RMK A01 T01490036  RH  048%=      5-min Rain = 0
KSVS 090210Z 25020G25KT 15/04 A2974 RMK A01 T01490037  RH  048%=      5-min Rain = 0
KSVS 090215Z 25023G30KT 15/04 A2974 RMK A01 T01500037  RH  048%=      5-min Rain = 0
KSVS 090220Z 25022G28KT 15/04 A2974 RMK A01 T01500038  RH  048%=      5-min Rain = 0
KSVS 090225Z 25023G28KT 15/04 A2975 RMK A01 T01490038  RH  048%=      5-min Rain = 0
KSVS 090230Z 25021G31KT 15/04 A2974 RMK A01 T01480038  RH  049%=      5-min Rain = 0
KSVS 090235Z 25021G30KT 15/04 A2974 RMK A01 T01480038  RH  049%=      5-min Rain = 0
KSVS 090240Z 25023G29KT 15/04 A2973 RMK A01 T01480037  RH  048%=      5-min Rain = 0
KSVS 090245Z 25022G27KT 15/04 A2974 RMK A01 T01470036  RH  048%=      5-min Rain = 0
KSVS 090250Z 25024G29KT 15/04 A2974 RMK A01 T01470035  RH  048%=      5-min Rain = 0
KSVS 090255Z 25024G31KT 15/03 A2974 RMK A01 T01470033  RH  047%=      5-min Rain = 0
KSVS 090300Z 25025G32KT 15/03 A2973 RMK A01 T01460031  RH  047%=      5-min Rain = 0
KSVS 090305Z 25023G31KT 14/03 A2973 RMK A01 T01440029  RH  047%=      5-min Rain = 0
KSVS 090310Z 25024G30KT 14/03 A2974 RMK A01 T01440026  RH  046%=      5-min Rain = 0
KSVS 090315Z 26024G32KT 14/02 A2974 RMK A01 T01440023  RH  045%=      5-min Rain = 0
KSVS 090320Z 26024G34KT 14/02 A2974 RMK A01 T01430022  RH  045%=      5-min Rain = 0
KSVS 090325Z 26023G29KT 14/02 A2974 RMK A01 T01410021  RH  045%=      5-min Rain = 0
KSVS 090330Z 26025G32KT 14/02 A2974 RMK A01 T01410020  RH  044%=      5-min Rain = 0
KSVS 090335Z 26025G32KT 14/02 A2974 RMK A01 T01410019  RH  044%=      5-min Rain = 0
KSVS 090340Z 25024G30KT 14/02 A2974 RMK A01 T01400020  RH  045%=      5-min Rain = 0
KSVS 090345Z 25022G28KT 14/02 A2974 RMK A01 T01380021  RH  046%=      5-min Rain = 0
KSVS 090350Z 25022G29KT 14/02 A2974 RMK A01 T01370022  RH  046%=      5-min Rain = 0
KSVS 090355Z 25023G29KT 14/02 A2974 RMK A01 T01380022  RH  046%=      5-min Rain = 0
KSVS 090400Z 25024G30KT 14/02 A2974 RMK A01 T01380022  RH  046%=      5-min Rain = 0
KSVS 090405Z 25023G29KT 14/02 A2974 RMK A01 T01360022  RH  047%=      5-min Rain = 0
KSVS 090410Z 25023G33KT 14/02 A2974 RMK A01 T01350023  RH  047%=      5-min Rain = 0
KSVS 090415Z 26022G29KT 13/02 A2974 RMK A01 T01330023  RH  048%=      5-min Rain = 0
KSVS 090420Z 26022G28KT 13/02 A2974 RMK A01 T01320024  RH  049%=      5-min Rain = 0
KSVS 090425Z 26021G27KT 13/03 A2974 RMK A01 T01310025  RH  049%=      5-min Rain = 0
KSVS 090430Z 26022G29KT 13/03 A2974 RMK A01 T01300025  RH  050%=      5-min Rain = 0
KSVS 090435Z 26021G29KT 13/03 A2974 RMK A01 T01300026  RH  050%=      5-min Rain = 0
KSVS 090440Z 26020G26KT 13/03 A2975 RMK A01 T01290027  RH  051%=      5-min Rain = 0
KSVS 090445Z 26020G26KT 13/03 A2974 RMK A01 T01280028  RH  051%=      5-min Rain = 0
KSVS 090450Z 26020G28KT 13/03 A2974 RMK A01 T01270029  RH  052%=      5-min Rain = 0
KSVS 090455Z 26021G26KT 13/03 A2974 RMK A01 T01270030  RH  052%=      5-min Rain = 0
KSVS 090500Z 25021KT 13/03 A2975 RMK A01 T01270031  RH  053%=      5-min Rain = 0
KSVS 090505Z 25021KT 13/03 A2975 RMK A01 T01250031  RH  053%=      5-min Rain = 0
KSVS 090510Z 25019G25KT 12/03 A2975 RMK A01 T01240031  RH  054%=      5-min Rain = 0
KSVS 090515Z 25019G24KT 12/03 A2975 RMK A01 T01210032  RH  055%=      5-min Rain = 0
KSVS 090520Z 26018KT 12/03 A2975 RMK A01 T01200032  RH  056%=      5-min Rain = 0
KSVS 090525Z 26018G25KT 12/03 A2975 RMK A01 T01190033  RH  056%=      5-min Rain = 0
KSVS 090530Z 26020G26KT 12/03 A2975 RMK A01 T01200033  RH  056%=      5-min Rain = 0
KSVS 090535Z 26018G24KT 12/03 A2975 RMK A01 T01190033  RH  057%=      5-min Rain = 0
KSVS 090540Z 26019G25KT 12/03 A2975 RMK A01 T01180033  RH  057%=      5-min Rain = 0
KSVS 090545Z 26019G25KT 12/03 A2975 RMK A01 T01180033  RH  057%=      5-min Rain = 0
KSVS 090550Z 26018KT 12/03 A2975 RMK A01 T01160033  RH  058%=      5-min Rain = 0
KSVS 090555Z 26016G21KT 11/03 A2975 RMK A01 T01140033  RH  059%=      5-min Rain = 0

Page generated in 0.009 seconds.